| time (UTC) | temp C | wind direction | speed KPH | gust KPH | rain 1hr cm | rain 24hr cm | rain mn cm | humidity % | barometer mb |
| 20260906200535 | 33 | 181 | 12.9 | 27.4 | 0.00 | 0.03 | 0.00 | 33 | |
| 20260906195556 | 32 | 181 | 19.3 | 29.0 | 0.00 | 0.03 | 0.00 | 32 | |
| 20260906194515 | 32 | 181 | 19.3 | 38.6 | 0.00 | 0.03 | 0.00 | 32 | |
| 20260906193517 | 32 | 181 | 12.9 | 27.4 | 0.00 | 0.03 | 0.00 | 35 | |
| 20260906192516 | 32 | 181 | 8.0 | 17.7 | 0.00 | 0.03 | 0.00 | 39 | |
| 20260906191515 | 32 | 181 | 11.3 | 22.5 | 0.00 | 0.03 | 0.00 | 41 | |
| 20260906190515 | 31 | 181 | 6.4 | 16.1 | 0.00 | 0.03 | 0.00 | 43 | |
| 20260906185535 | 31 | 181 | 9.7 | 20.9 | 0.00 | 0.03 | 0.00 | 43 | |
| 20260906184516 | 31 | 181 | 4.8 | 16.1 | 0.00 | 0.03 | 0.00 | 44 | |
| 20260906183515 | 30 | 181 | 9.7 | 16.1 | 0.00 | 0.03 | 0.00 | 46 | |
| 20260906182515 | 30 | 181 | 9.7 | 17.7 | 0.00 | 0.03 | 0.00 | 48 | |
| 20260906181515 | 30 | 181 | 9.7 | 20.9 | 0.00 | 0.03 | 0.00 | 47 | |
| 20260906180515 | 29 | 181 | 11.3 | 22.5 | 0.00 | 0.03 | 0.00 | 48 | |
| 20260906175516 | 29 | 181 | 9.7 | 19.3 | 0.00 | 0.03 | 0.00 | 49 | |
| 20260906174515 | 29 | 181 | 8.0 | 16.1 | 0.00 | 0.03 | 0.00 | 50 | |
| 20260906173515 | 28 | 181 | 11.3 | 19.3 | 0.00 | 0.03 | 0.00 | 51 | |
| 20260906172516 | 28 | 181 | 11.3 | 19.3 | 0.00 | 0.03 | 0.00 | 51 | |
| 20260906171515 | 29 | 181 | 8.0 | 16.1 | 0.00 | 0.03 | 0.00 | 50 | |
| 20260906170536 | 29 | 181 | 9.7 | 16.1 | 0.00 | 0.03 | 0.00 | 51 | |
| 20260906165515 | 29 | 181 | 16.1 | 24.1 | 0.00 | 0.03 | 0.00 | 51 | |
| 20260906164536 | 28 | 181 | 14.5 | 27.4 | 0.00 | 0.03 | 0.00 | 55 | |
| 20260906163515 | 28 | 181 | 14.5 | 25.7 | 0.00 | 0.03 | 0.00 | 55 | |
| 20260906162515 | 27 | 181 | 14.5 | 24.1 | 0.00 | 0.03 | 0.00 | 56 | |
| 20260906161515 | 28 | 181 | 14.5 | 20.9 | 0.00 | 0.03 | 0.00 | 56 | |
| 20260906160515 | 27 | 181 | 11.3 | 22.5 | 0.00 | 0.03 | 0.00 | 58 | |
| 20260906155515 | 27 | 181 | 14.5 | 25.7 | 0.00 | 0.03 | 0.00 | 60 | |
| 20260906154515 | 26 | 181 | 14.5 | 22.5 | 0.00 | 0.03 | 0.00 | 62 | |
| 20260906153515 | 26 | 181 | 14.5 | 27.4 | 0.00 | 0.03 | 0.00 | 64 | |
| 20260906152515 | 26 | 181 | 16.1 | 22.5 | 0.00 | 0.03 | 0.00 | 64 | |
| 20260906151617 | 25 | 181 | 14.5 | 24.1 | 0.00 | 0.03 | 0.00 | 65 | |
| 20260906150515 | 25 | 181 | 14.5 | 24.1 | 0.00 | 0.03 | 0.00 | 69 | |
| 20260906145515 | 25 | 181 | 12.9 | 22.5 | 0.00 | 0.03 | 0.00 | 68 | |
| 20260906144516 | 24 | 181 | 12.9 | 22.5 | 0.00 | 0.03 | 0.00 | 68 | |
| 20260906143515 | 24 | 181 | 9.7 | 22.5 | 0.00 | 0.03 | 0.00 | 69 | |
| 20260906142515 | 24 | 181 | 8.0 | 17.7 | 0.00 | 0.03 | 0.00 | 68 | |
| 20260906141516 | 23 | 181 | 6.4 | 11.3 | 0.00 | 0.03 | 0.00 | 67 | |
| 20260906140515 | 23 | 181 | 8.0 | 14.5 | 0.00 | 0.03 | 0.00 | 68 | |
| 20260906135535 | 23 | 181 | 16.1 | 24.1 | 0.00 | 0.03 | 0.00 | 69 | |
| 20260906134535 | 25 | 181 | 17.7 | 43.5 | 0.00 | 0.03 | 0.00 | 62 | |
| 20260906133515 | 25 | 0.0 | 0.0 | 0.00 | 0.03 | 0.00 | 61 | ||
| 20260906132515 | 23 | 181 | 1.6 | 4.8 | 0.00 | 0.03 | 0.00 | 63 | |
| 20260906131516 | 23 | 181 | 0.0 | 4.8 | 0.00 | 0.03 | 0.00 | 65 | |
| 20260906130515 | 23 | 181 | 3.2 | 8.0 | 0.00 | 0.03 | 0.00 | 66 | |
| 20260906125518 | 23 | 181 | 4.8 | 8.0 | 0.00 | 0.03 | 0.00 | 66 | |
| 20260906124515 | 22 | 181 | 4.8 | 9.7 | 0.00 | 0.03 | 0.00 | 67 | |
| 20260906123537 | 22 | 181 | 8.0 | 11.3 | 0.00 | 0.03 | 0.00 | 69 | |
| 20260906122515 | 22 | 181 | 6.4 | 9.7 | 0.00 | 0.03 | 0.00 | 70 | |
| 20260906121515 | 22 | 181 | 3.2 | 8.0 | 0.00 | 0.03 | 0.00 | 69 | |
| 20260906120516 | 22 | 181 | 3.2 | 6.4 | 0.00 | 0.03 | 0.00 | 68 | |
| 20260906115515 | 23 | 181 | 4.8 | 9.7 | 0.00 | 0.03 | 0.00 | 68 | |
| 20260906114515 | 23 | 181 | 8.0 | 11.3 | 0.00 | 0.03 | 0.00 | 68 | |
| 20260906113515 | 23 | 181 | 6.4 | 11.3 | 0.00 | 0.03 | 0.00 | 68 | |
| 20260906112515 | 23 | 181 | 8.0 | 11.3 | 0.00 | 0.03 | 0.00 | 68 | |
| 20260906111535 | 23 | 181 | 6.4 | 9.7 | 0.00 | 0.03 | 0.00 | 68 | |
| 20260906110515 | 23 | 181 | 6.4 | 8.0 | 0.00 | 0.03 | 0.00 | 69 | |
| 20260906105516 | 23 | 181 | 6.4 | 9.7 | 0.00 | 0.03 | 0.00 | 68 | |
| 20260906104515 | 23 | 181 | 6.4 | 8.0 | 0.00 | 0.03 | 0.00 | 66 | |
| 20260906103516 | 23 | 181 | 8.0 | 11.3 | 0.00 | 0.03 | 0.00 | 64 | |
| 20260906102515 | 24 | 181 | 3.2 | 6.4 | 0.00 | 0.03 | 0.00 | 62 | |
| 20260906101515 | 25 | 181 | 6.4 | 9.7 | 0.00 | 0.03 | 0.00 | 62 | |
| 20260906100537 | 25 | 181 | 6.4 | 9.7 | 0.00 | 0.03 | 0.00 | 61 | |
| 20260906095516 | 25 | 181 | 9.7 | 14.5 | 0.00 | 0.03 | 0.00 | 61 | |
| 20260906094535 | 25 | 181 | 9.7 | 16.1 | 0.00 | 0.03 | 0.00 | 60 | |
| 20260906093515 | 25 | 181 | 9.7 | 14.5 | 0.00 | 0.03 | 0.00 | 58 | |
| 20260906092515 | 25 | 181 | 8.0 | 12.9 | 0.00 | 0.03 | 0.00 | 58 | |
| 20260906091515 | 25 | 181 | 8.0 | 11.3 | 0.00 | 0.03 | 0.00 | 58 | |
| 20260906090516 | 25 | 181 | 8.0 | 12.9 | 0.00 | 0.03 | 0.00 | 58 | |
| 20260906085515 | 25 | 181 | 9.7 | 14.5 | 0.00 | 0.03 | 0.00 | 57 | |
| 20260906084515 | 26 | 181 | 6.4 | 11.3 | 0.00 | 0.03 | 0.00 | 56 | |
| 20260906083515 | 26 | 181 | 6.4 | 12.9 | 0.00 | 0.03 | 0.00 | 56 | |
| 20260906082515 | 26 | 181 | 8.0 | 14.5 | 0.00 | 0.03 | 0.00 | 57 | |
| 20260906081515 | 26 | 181 | 8.0 | 12.9 | 0.00 | 0.03 | 0.00 | 57 | |
| 20260906080515 | 26 | 181 | 8.0 | 12.9 | 0.00 | 0.03 | 0.00 | 57 | |
| 20260906075535 | 26 | 181 | 9.7 | 16.1 | 0.00 | 0.03 | 0.00 | 56 | |
| 20260906074515 | 26 | 181 | 9.7 | 16.1 | 0.00 | 0.03 | 0.00 | 54 | |
| 20260906073558 | 26 | 181 | 9.7 | 16.1 | 0.00 | 0.03 | 0.00 | 52 | |
| 20260906072516 | 27 | 181 | 11.3 | 17.7 | 0.00 | 0.03 | 0.00 | 51 | |
| 20260906071515 | 26 | 181 | 12.9 | 19.3 | 0.00 | 0.03 | 0.00 | 53 | |
| 20260906070536 | 26 | 181 | 11.3 | 17.7 | 0.00 | 0.03 | 0.00 | 57 | |
| 20260906065516 | 26 | 181 | 9.7 | 16.1 | 0.00 | 0.03 | 0.00 | 56 | |
| 20260906064516 | 26 | 181 | 12.9 | 19.3 | 0.00 | 0.03 | 0.00 | 55 | |
| 20260906063516 | 26 | 181 | 12.9 | 19.3 | 0.00 | 0.03 | 0.00 | 54 | |
| 20260906062515 | 27 | 181 | 11.3 | 17.7 | 0.00 | 0.03 | 0.00 | 50 | |
| 20260906061516 | 28 | 181 | 11.3 | 20.9 | 0.00 | 0.03 | 0.00 | 48 | |
| 20260906060516 | 28 | 181 | 14.5 | 22.5 | 0.00 | 0.03 | 0.00 | 48 | |
| 20260906055515 | 27 | 181 | 12.9 | 19.3 | 0.00 | 0.03 | 0.00 | 51 | |
| 20260906054515 | 26 | 181 | 12.9 | 20.9 | 0.00 | 0.03 | 0.00 | 56 | |
| 20260906053515 | 26 | 181 | 12.9 | 22.5 | 0.00 | 0.03 | 0.00 | 58 | |
| 20260906052516 | 26 | 181 | 14.5 | 24.1 | 0.00 | 0.03 | 0.00 | 57 | |
| 20260906051515 | 26 | 181 | 12.9 | 20.9 | 0.00 | 0.03 | 0.00 | 59 | |
| 20260906050515 | 25 | 181 | 9.7 | 12.9 | 0.00 | 0.03 | 0.00 | 61 | |
| 20260906045515 | 25 | 181 | 6.4 | 11.3 | 0.00 | 0.03 | 0.00 | 62 | |
| 20260906044515 | 25 | 181 | 11.3 | 16.1 | 0.00 | 0.03 | 0.00 | 60 | |
| 20260906043535 | 26 | 181 | 8.0 | 16.1 | 0.00 | 0.03 | 0.00 | 59 | |
| 20260906042516 | 26 | 181 | 9.7 | 16.1 | 0.00 | 0.03 | 0.00 | 57 | |
| 20260906041517 | 26 | 181 | 9.7 | 17.7 | 0.00 | 0.03 | 0.00 | 55 | |
| 20260906040516 | 26 | 181 | 9.7 | 14.5 | 0.00 | 0.03 | 0.00 | 55 | |
| 20260906035515 | 26 | 181 | 8.0 | 11.3 | 0.00 | 0.03 | 0.00 | 57 | |
| 20260906034515 | 25 | 181 | 6.4 | 11.3 | 0.00 | 0.03 | 0.00 | 60 | |
| 20260906033516 | 26 | 181 | 8.0 | 12.9 | 0.00 | 0.03 | 0.00 | 58 | |
| 20260906032515 | 26 | 181 | 6.4 | 12.9 | 0.00 | 0.03 | 0.00 | 57 | |
| 20260906031516 | 26 | 181 | 8.0 | 11.3 | 0.00 | 0.03 | 0.00 | 56 | |
| 20260906030515 | 26 | 181 | 9.7 | 12.9 | 0.00 | 0.03 | 0.00 | 55 | |
| 20260906025516 | 26 | 181 | 9.7 | 17.7 | 0.00 | 0.03 | 0.00 | 54 | |
| 20260906024515 | 26 | 181 | 9.7 | 16.1 | 0.00 | 0.03 | 0.00 | 55 | |
| 20260906023538 | 26 | 181 | 8.0 | 12.9 | 0.00 | 0.03 | 0.00 | 57 | |
| 20260906022515 | 26 | 181 | 8.0 | 12.9 | 0.00 | 0.03 | 0.00 | 58 | |
| 20260906021535 | 26 | 181 | 9.7 | 14.5 | 0.00 | 0.03 | 0.00 | 58 | |
| 20260906020515 | 27 | 181 | 11.3 | 16.1 | 0.00 | 0.03 | 0.00 | 57 | |
| 20260906015515 | 27 | 181 | 11.3 | 19.3 | 0.00 | 0.03 | 0.00 | 56 | |
| 20260906014515 | 27 | 181 | 12.9 | 22.5 | 0.00 | 0.03 | 0.00 | 57 | |
| 20260906013515 | 27 | 181 | 11.3 | 16.1 | 0.00 | 0.03 | 0.00 | 57 | |
| 20260906012536 | 27 | 181 | 11.3 | 17.7 | 0.00 | 0.03 | 0.00 | 57 | |
| 20260906011537 | 27 | 181 | 11.3 | 17.7 | 0.00 | 0.03 | 0.00 | 57 | |
| 20260906010516 | 27 | 181 | 11.3 | 17.7 | 0.00 | 0.03 | 0.00 | 57 | |
| 20260906005515 | 27 | 181 | 12.9 | 20.9 | 0.00 | 0.03 | 0.00 | 57 | |
| 20260906004515 | 27 | 181 | 12.9 | 24.1 | 0.00 | 0.03 | 0.00 | 60 | |
| 20260906003515 | 27 | 181 | 17.7 | 35.4 | 0.00 | 0.03 | 0.00 | 59 | |
| 20260906002515 | 28 | 181 | 19.3 | 29.0 | 0.00 | 0.03 | 0.00 | 55 | |
| 20260906001516 | 27 | 181 | 16.1 | 27.4 | 0.00 | 0.03 | 0.00 | 56 | |
| 20260906000515 | 28 | 181 | 20.9 | 43.5 | 0.00 | 0.03 | 0.00 | 54 | |
| 20260905235518 | 28 | 181 | 17.7 | 35.4 | 0.00 | 0.03 | 0.03 | 53 | |
| 20260905234515 | 28 | 181 | 19.3 | 38.6 | 0.00 | 0.03 | 0.03 | 53 | |
| 20260905233515 | 27 | 181 | 12.9 | 32.2 | 0.00 | 0.03 | 0.03 | 57 | |
| 20260905232516 | 26 | 181 | 19.3 | 32.2 | 0.00 | 0.03 | 0.03 | 62 | |
| 20260905231515 | 27 | 181 | 17.7 | 29.0 | 0.00 | 0.03 | 0.03 | 59 | |
| 20260905230515 | 27 | 181 | 16.1 | 33.8 | 0.00 | 0.03 | 0.03 | 57 | |
| 20260905225515 | 27 | 181 | 14.5 | 27.4 | 0.00 | 0.03 | 0.03 | 59 | |
| 20260905224515 | 26 | 181 | 19.3 | 35.4 | 0.00 | 0.03 | 0.03 | 64 | |
| 20260905223516 | 25 | 181 | 19.3 | 37.0 | 0.03 | 0.03 | 0.03 | 68 | |
| 20260905222535 | 26 | 181 | 19.3 | 38.6 | 0.03 | 0.03 | 0.03 | 66 | |
| 20260905221516 | 26 | 181 | 12.9 | 22.5 | 0.03 | 0.03 | 0.03 | 64 | |
| 20260905220515 | 25 | 181 | 14.5 | 22.5 | 0.03 | 0.03 | 0.03 | 67 | |
| 20260905215515 | 25 | 181 | 17.7 | 29.0 | 0.03 | 0.03 | 0.03 | 72 | |
| 20260905214515 | 26 | 181 | 12.9 | 27.4 | 0.03 | 0.03 | 0.03 | 68 | |
| 20260905213515 | 26 | 181 | 16.1 | 33.8 | 0.00 | 0.00 | 0.00 | 65 | |
| 20260905212515 | 28 | 181 | 12.9 | 30.6 | 0.00 | 0.00 | 0.00 | 59 | |
| 20260905211515 | 33 | 181 | 11.3 | 32.2 | 0.00 | 0.00 | 0.00 | 36 | |
| 20260905210515 | 33 | 181 | 9.7 | 16.1 | 0.00 | 0.00 | 0.00 | 32 | |
| 20260905205515 | 33 | 181 | 14.5 | 22.5 | 0.00 | 0.00 | 0.00 | 33 | |
| 20260905204516 | 33 | 0.0 | 0.0 | 0.00 | 0.00 | 0.00 | 39 | ||
| 20260905203535 | 34 | 181 | 9.7 | 30.6 | 0.00 | 0.00 | 0.00 | 35 | |
| 20260905202516 | 34 | 181 | 14.5 | 27.4 | 0.00 | 0.00 | 0.00 | 31 | |
| 20260905201515 | 35 | 181 | 12.9 | 20.9 | 0.00 | 0.00 | 0.00 | 30 |